createdAt,value
2019-01-29T00:01:55.573Z,9.30
2019-01-29T00:03:56.676Z,10.77
2019-01-29T00:05:57.528Z,14.40
2019-01-29T00:07:58.357Z,13.70
2019-01-29T00:09:59.272Z,10.87
2019-01-29T00:12:00.100Z,9.23
2019-01-29T00:14:00.947Z,15.03
2019-01-29T00:16:01.788Z,12.07
2019-01-29T00:18:02.648Z,10.87
2019-01-29T00:20:03.807Z,10.33
2019-01-29T00:22:04.628Z,9.87
2019-01-29T00:24:05.480Z,10.40
2019-01-29T00:26:06.314Z,9.17
2019-01-29T00:28:07.439Z,9.87
2019-01-29T00:30:08.301Z,8.90
2019-01-29T00:32:09.124Z,8.80
2019-01-29T00:34:09.969Z,8.43
2019-01-29T00:36:10.829Z,9.23
2019-01-29T00:38:11.644Z,8.90
2019-01-29T00:40:12.484Z,8.97
2019-01-29T00:42:13.612Z,12.77
2019-01-29T00:44:14.448Z,8.93
2019-01-29T00:46:15.558Z,10.57
2019-01-29T00:48:16.404Z,9.33
2019-01-29T00:50:17.248Z,10.53
2019-01-29T00:52:18.101Z,9.57
2019-01-29T00:54:19.255Z,9.63
2019-01-29T00:56:20.100Z,9.33
2019-01-29T00:58:20.932Z,9.60
2019-01-29T01:00:21.760Z,9.23
2019-01-29T01:02:22.609Z,12.43
2019-01-29T01:04:23.772Z,10.87
2019-01-29T01:06:24.908Z,9.77
2019-01-29T01:08:26.073Z,11.47
2019-01-29T01:10:26.925Z,10.83
2019-01-29T01:12:27.752Z,11.23
2019-01-29T01:14:28.580Z,10.40
2019-01-29T01:16:29.441Z,8.93
2019-01-29T01:18:30.264Z,11.20
2019-01-29T01:20:31.099Z,9.87
2019-01-29T01:22:32.229Z,9.80
2019-01-29T01:24:33.159Z,12.17
2019-01-29T01:26:33.992Z,9.13
2019-01-29T01:28:34.872Z,12.33
2019-01-29T01:30:35.704Z,10.33
2019-01-29T01:32:36.848Z,10.80
2019-01-29T01:34:37.684Z,10.40
2019-01-29T01:36:38.543Z,11.53
2019-01-29T01:38:39.372Z,11.93
2019-01-29T01:40:40.203Z,13.37
2019-01-29T01:42:41.068Z,10.93
2019-01-29T01:44:41.892Z,13.67
2019-01-29T01:46:42.732Z,9.90
2019-01-29T01:48:43.591Z,12.77
2019-01-29T01:50:44.420Z,11.77
2019-01-29T01:52:45.412Z,11.07
2019-01-29T01:54:46.264Z,9.47
2019-01-29T01:56:47.100Z,10.90
2019-01-29T01:58:47.957Z,10.93
2019-01-29T02:00:48.785Z,9.00
2019-01-29T02:02:49.976Z,10.80
2019-01-29T02:04:51.143Z,9.30
2019-01-29T02:06:51.980Z,10.03
2019-01-29T02:08:52.816Z,12.03
2019-01-29T02:10:53.656Z,9.53
2019-01-29T02:12:54.492Z,11.03
2019-01-29T02:14:55.344Z,10.33
2019-01-29T02:16:56.182Z,9.73
2019-01-29T02:18:57.024Z,11.73
2019-01-29T02:20:57.886Z,10.53
2019-01-29T02:22:58.715Z,10.33
2019-01-29T02:24:59.878Z,9.73
2019-01-29T02:27:00.734Z,9.97
2019-01-29T02:29:01.564Z,9.40
2019-01-29T02:31:02.413Z,11.20
2019-01-29T02:33:03.249Z,10.77
2019-01-29T02:35:04.081Z,10.00
2019-01-29T02:37:05.186Z,11.37
2019-01-29T02:39:06.019Z,9.77
2019-01-29T02:41:07.155Z,8.73
2019-01-29T02:43:08.009Z,9.77
2019-01-29T02:45:08.837Z,9.37
2019-01-29T02:47:09.692Z,8.03
2019-01-29T02:49:10.525Z,10.80
2019-01-29T02:51:11.348Z,10.03
2019-01-29T02:53:18.131Z,8.77
2019-01-29T02:55:14.918Z,9.00
2019-01-29T02:57:15.764Z,9.80
2019-01-29T02:59:16.888Z,8.13
2019-01-29T03:01:18.034Z,9.00
2019-01-29T03:03:18.882Z,9.93
2019-01-29T03:05:19.712Z,10.37
2019-01-29T03:07:20.836Z,9.37
2019-01-29T03:09:21.999Z,9.90
2019-01-29T03:11:22.833Z,11.13
2019-01-29T03:13:23.652Z,9.33
2019-01-29T03:15:24.492Z,10.93
2019-01-29T03:17:25.432Z,11.00
2019-01-29T03:19:26.657Z,8.50
2019-01-29T03:21:27.752Z,10.30
2019-01-29T03:23:28.596Z,7.90
2019-01-29T03:25:29.441Z,7.43
2019-01-29T03:27:30.283Z,8.10
2019-01-29T03:29:31.453Z,8.67
2019-01-29T03:31:32.309Z,9.43
2019-01-29T03:33:33.132Z,10.47
2019-01-29T03:35:34.252Z,8.90
2019-01-29T03:37:35.108Z,8.67
2019-01-29T03:39:36.012Z,9.23
2019-01-29T03:41:36.868Z,7.63
2019-01-29T03:43:37.700Z,8.23
2019-01-29T03:45:38.532Z,7.13
2019-01-29T03:47:39.669Z,13.50
2019-01-29T03:49:40.501Z,8.67
2019-01-29T03:51:41.322Z,11.83
2019-01-29T03:53:42.181Z,8.63
2019-01-29T03:55:43.019Z,9.57
2019-01-29T03:57:43.879Z,9.33
2019-01-29T03:59:44.732Z,7.77
2019-01-29T04:01:45.766Z,7.60
2019-01-29T04:03:46.601Z,9.77
2019-01-29T04:05:47.430Z,8.27
2019-01-29T04:07:48.615Z,9.37
2019-01-29T04:09:49.453Z,13.53
2019-01-29T04:11:50.268Z,10.77
2019-01-29T04:13:51.123Z,11.90
2019-01-29T04:15:51.972Z,11.10
2019-01-29T04:17:53.076Z,10.17
2019-01-29T04:19:53.926Z,9.40
2019-01-29T04:21:55.158Z,10.23
2019-01-29T04:23:55.994Z,9.50
2019-01-29T04:25:56.836Z,9.70
2019-01-29T04:27:57.672Z,10.23
2019-01-29T04:29:58.789Z,9.70
2019-01-29T04:31:59.950Z,11.00
2019-01-29T04:34:00.797Z,10.00
2019-01-29T04:36:01.648Z,10.17
2019-01-29T04:38:02.485Z,12.23
2019-01-29T04:40:03.319Z,9.50
2019-01-29T04:42:04.520Z,10.87
2019-01-29T04:44:05.352Z,9.30
2019-01-29T04:46:06.177Z,11.60
2019-01-29T04:48:07.028Z,11.60
2019-01-29T04:50:07.877Z,9.83
2019-01-29T04:52:08.737Z,11.17
2019-01-29T04:54:09.585Z,10.07
2019-01-29T04:56:10.432Z,10.80
2019-01-29T04:58:11.276Z,10.27
2019-01-29T05:00:12.116Z,10.83
2019-01-29T05:02:12.964Z,12.17
2019-01-29T05:04:13.814Z,9.27
2019-01-29T05:06:14.643Z,11.70
2019-01-29T05:08:15.492Z,12.43
2019-01-29T05:10:16.676Z,10.63
2019-01-29T05:12:17.834Z,13.37
2019-01-29T05:14:18.660Z,10.57
2019-01-29T05:16:19.512Z,12.23
2019-01-29T05:18:20.340Z,11.50
2019-01-29T05:20:21.168Z,10.20
2019-01-29T05:22:22.020Z,8.87
2019-01-29T05:24:24.851Z,10.20
2019-01-29T05:26:25.608Z,10.30
2019-01-29T05:28:26.469Z,11.70
2019-01-29T05:30:27.312Z,9.93
2019-01-29T05:32:28.148Z,10.10
2019-01-29T05:34:28.979Z,11.37
2019-01-29T05:36:30.085Z,11.50
2019-01-29T05:38:31.231Z,8.80
2019-01-29T05:40:32.071Z,12.30
2019-01-29T05:42:32.909Z,11.10
2019-01-29T05:44:34.012Z,8.73
2019-01-29T05:46:35.169Z,14.90
2019-01-29T05:48:36.017Z,11.23
2019-01-29T05:50:37.134Z,10.87
2019-01-29T05:52:37.977Z,11.87
2019-01-29T05:54:39.113Z,9.67
2019-01-29T05:56:39.960Z,10.57
2019-01-29T05:58:40.800Z,9.83
2019-01-29T06:00:41.757Z,9.07
2019-01-29T06:02:42.588Z,11.17
2019-01-29T06:04:43.438Z,11.00
2019-01-29T06:06:44.607Z,9.90
2019-01-29T06:08:45.460Z,12.47
2019-01-29T06:10:46.283Z,12.93
2019-01-29T06:12:47.120Z,10.10
2019-01-29T06:14:47.964Z,11.03
2019-01-29T06:16:48.800Z,9.83
2019-01-29T06:18:49.626Z,12.20
2019-01-29T06:20:50.786Z,10.60
2019-01-29T06:22:51.624Z,12.80
2019-01-29T06:24:52.765Z,10.47
2019-01-29T06:26:53.684Z,10.93
2019-01-29T06:28:54.532Z,12.43
2019-01-29T06:30:55.390Z,11.00
2019-01-29T06:32:56.216Z,9.73
2019-01-29T06:34:57.066Z,12.30
2019-01-29T06:36:57.900Z,12.63
2019-01-29T06:38:58.748Z,9.57
2019-01-29T06:40:59.612Z,11.17
2019-01-29T06:43:00.441Z,11.43
2019-01-29T06:45:01.296Z,12.90
2019-01-29T06:47:02.129Z,12.60
2019-01-29T06:49:02.978Z,9.77
2019-01-29T06:51:03.894Z,11.53
2019-01-29T06:53:04.765Z,12.87
2019-01-29T06:55:05.932Z,11.17
2019-01-29T06:57:06.769Z,12.23
2019-01-29T06:59:07.616Z,10.57
2019-01-29T07:01:08.457Z,14.53
2019-01-29T07:03:09.304Z,11.37
2019-01-29T07:05:10.406Z,10.30
2019-01-29T07:07:11.252Z,13.67
2019-01-29T07:09:12.092Z,12.13
2019-01-29T07:11:12.952Z,11.50
2019-01-29T07:13:13.784Z,12.67
2019-01-29T07:15:34.289Z,11.23
2019-01-29T07:17:37.953Z,10.27
2019-01-29T07:19:42.308Z,11.97
2019-01-29T07:21:43.170Z,10.87
2019-01-29T07:23:43.997Z,11.47
2019-01-29T07:25:44.821Z,11.30
2019-01-29T07:27:45.673Z,11.87
2019-01-29T07:29:46.564Z,13.43
2019-01-29T07:31:47.769Z,10.67
2019-01-29T07:33:48.608Z,10.90
2019-01-29T07:35:49.464Z,12.77
2019-01-29T07:37:50.291Z,12.83
2019-01-29T07:39:51.140Z,11.13
2019-01-29T07:41:51.972Z,9.87
2019-01-29T07:43:52.829Z,10.43
2019-01-29T07:45:53.672Z,9.23
2019-01-29T07:47:54.513Z,9.87
2019-01-29T07:49:55.360Z,10.63
2019-01-29T07:51:56.202Z,11.60
2019-01-29T07:53:57.041Z,11.50
2019-01-29T07:55:57.886Z,10.10
2019-01-29T07:57:58.720Z,12.10
2019-01-29T07:59:59.836Z,11.43
2019-01-29T08:02:00.685Z,8.23
2019-01-29T08:04:01.811Z,9.80
2019-01-29T08:06:02.668Z,10.67
2019-01-29T08:08:03.492Z,10.80
2019-01-29T08:10:04.357Z,10.00
2019-01-29T08:12:05.181Z,8.40
2019-01-29T08:14:06.272Z,9.77
2019-01-29T08:16:07.120Z,4.73
2019-01-29T08:18:07.981Z,12.30
2019-01-29T08:20:08.813Z,7.10
2019-01-29T08:22:09.640Z,9.47
2019-01-29T08:24:10.502Z,9.67
2019-01-29T08:26:12.052Z,7.67
2019-01-29T08:28:12.892Z,8.50
2019-01-29T08:30:13.719Z,9.23
2019-01-29T08:32:14.580Z,11.53
2019-01-29T08:34:15.408Z,9.07
2019-01-29T08:36:16.235Z,10.27
2019-01-29T08:38:17.084Z,10.23
2019-01-29T08:40:17.928Z,10.97
2019-01-29T08:42:18.768Z,9.80
2019-01-29T08:44:19.600Z,8.87
2019-01-29T08:46:20.440Z,11.70
2019-01-29T08:48:21.283Z,8.23
2019-01-29T08:50:22.129Z,9.83
2019-01-29T08:52:22.956Z,7.90
2019-01-29T08:54:23.796Z,13.77
2019-01-29T08:56:24.647Z,8.77
2019-01-29T08:58:27.148Z,9.63
2019-01-29T09:00:28.236Z,10.77
2019-01-29T09:02:29.069Z,12.40
2019-01-29T09:04:29.916Z,9.73
2019-01-29T09:06:30.756Z,9.17
2019-01-29T09:08:31.627Z,7.63
2019-01-29T09:10:32.452Z,8.50
2019-01-29T09:12:33.288Z,10.40
2019-01-29T09:14:34.128Z,9.23
2019-01-29T09:16:34.987Z,10.27
2019-01-29T09:18:35.812Z,8.83
2019-01-29T09:20:36.956Z,10.93
2019-01-29T09:22:37.817Z,13.87
2019-01-29T09:24:38.645Z,24.73
2019-01-29T09:26:39.480Z,18.33
2019-01-29T09:28:40.324Z,22.50
2019-01-29T09:30:41.344Z,21.90
2019-01-29T09:32:42.176Z,23.47
2019-01-29T09:34:43.025Z,21.13
2019-01-29T09:36:43.856Z,28.40
2019-01-29T09:38:44.706Z,16.77
2019-01-29T09:40:45.542Z,16.77
2019-01-29T09:42:46.386Z,14.63
2019-01-29T09:44:47.334Z,15.27
2019-01-29T09:46:48.164Z,10.27
2019-01-29T09:48:49.008Z,10.93
2019-01-29T09:50:50.161Z,9.90
2019-01-29T09:52:51.279Z,13.53
2019-01-29T09:54:52.458Z,10.63
2019-01-29T09:56:53.293Z,11.40
2019-01-29T09:58:54.136Z,10.13
2019-01-29T10:00:54.971Z,9.63
2019-01-29T10:02:55.820Z,8.90
2019-01-29T10:04:56.676Z,9.87
2019-01-29T10:06:57.524Z,8.77
2019-01-29T10:08:58.356Z,13.90
2019-01-29T10:10:59.208Z,9.13
2019-01-29T10:13:00.059Z,14.83
2019-01-29T10:15:00.897Z,10.57
2019-01-29T10:17:01.756Z,10.37
2019-01-29T10:19:02.582Z,13.00
2019-01-29T10:21:03.418Z,11.93
2019-01-29T10:23:04.265Z,10.40
2019-01-29T10:25:05.468Z,12.63
2019-01-29T10:27:06.313Z,14.27
2019-01-29T10:29:07.173Z,13.47
2019-01-29T10:31:08.008Z,12.93
2019-01-29T10:33:08.838Z,14.93
2019-01-29T10:35:09.688Z,8.60
2019-01-29T10:37:10.516Z,10.20
2019-01-29T10:39:11.683Z,11.17
2019-01-29T10:41:12.849Z,9.17
2019-01-29T10:43:13.681Z,9.27
2019-01-29T10:45:14.524Z,13.60
2019-01-29T10:47:15.469Z,11.57
2019-01-29T10:49:16.308Z,11.57
2019-01-29T10:51:17.157Z,11.77
2019-01-29T10:53:18.025Z,10.70
2019-01-29T10:55:18.955Z,14.07
2019-01-29T10:57:19.790Z,10.43
2019-01-29T10:59:20.616Z,14.67
2019-01-29T11:01:21.461Z,11.63
2019-01-29T11:03:22.296Z,10.43
2019-01-29T11:05:23.234Z,11.63
2019-01-29T11:07:24.401Z,9.27
2019-01-29T11:09:25.640Z,8.70
2019-01-29T11:11:26.985Z,10.73
2019-01-29T11:13:27.816Z,10.00
2019-01-29T11:15:28.648Z,9.80
2019-01-29T11:17:29.496Z,11.37
2019-01-29T11:19:30.328Z,10.97
2019-01-29T11:21:31.166Z,10.70
2019-01-29T11:23:32.012Z,10.07
2019-01-29T11:25:32.861Z,10.77
2019-01-29T11:27:33.719Z,8.80
2019-01-29T11:29:34.561Z,8.43
2019-01-29T11:31:35.392Z,9.10
2019-01-29T11:33:36.250Z,10.33
2019-01-29T11:35:37.070Z,7.93
2019-01-29T11:37:37.915Z,9.57
2019-01-29T11:39:38.744Z,11.10
2019-01-29T11:41:39.572Z,9.30
2019-01-29T11:43:40.424Z,9.33
2019-01-29T11:45:41.288Z,10.17
2019-01-29T11:47:42.116Z,8.37
2019-01-29T11:49:42.961Z,9.03
2019-01-29T11:51:43.827Z,9.73
2019-01-29T11:53:44.648Z,9.40
2019-01-29T11:55:45.522Z,9.27
2019-01-29T11:57:46.985Z,7.90
2019-01-29T11:59:47.976Z,9.00
2019-01-29T12:01:48.825Z,11.70
2019-01-29T12:03:49.660Z,9.20
2019-01-29T12:05:50.508Z,11.00
2019-01-29T12:07:51.344Z,11.57
2019-01-29T12:09:52.185Z,8.13
2019-01-29T12:11:53.037Z,8.90
2019-01-29T12:13:54.220Z,8.07
2019-01-29T12:15:55.316Z,9.03
2019-01-29T12:17:56.546Z,10.30
2019-01-29T12:19:57.649Z,11.73
2019-01-29T12:21:58.484Z,10.27
2019-01-29T12:23:59.351Z,11.47
2019-01-29T12:26:00.448Z,9.67
2019-01-29T12:28:01.594Z,10.30
2019-01-29T12:30:02.648Z,9.37
2019-01-29T12:32:03.501Z,8.50
2019-01-29T12:34:04.336Z,8.70
2019-01-29T12:36:05.173Z,9.40
2019-01-29T12:38:06.024Z,9.20
2019-01-29T12:40:06.860Z,9.27
2019-01-29T12:42:07.692Z,8.73
2019-01-29T12:44:08.545Z,7.53
2019-01-29T12:46:09.504Z,12.23
2019-01-29T12:48:10.350Z,8.97
2019-01-29T12:50:11.193Z,11.60
2019-01-29T12:52:30.725Z,9.20
2019-01-29T12:54:31.577Z,9.30
2019-01-29T12:56:32.412Z,11.70
2019-01-29T12:58:33.287Z,10.93
2019-01-29T13:00:38.016Z,8.53
2019-01-29T13:02:38.877Z,9.77
2019-01-29T13:04:39.714Z,9.53
2019-01-29T13:06:40.552Z,8.67
2019-01-29T13:08:41.700Z,10.57
2019-01-29T13:10:42.536Z,9.00
2019-01-29T13:12:43.385Z,8.63
2019-01-29T13:14:44.217Z,7.93
2019-01-29T13:16:45.065Z,8.57
2019-01-29T13:18:45.901Z,8.93
2019-01-29T13:20:46.756Z,8.87
2019-01-29T13:22:47.596Z,9.53
2019-01-29T13:24:48.428Z,9.23
2019-01-29T13:26:49.301Z,8.70
2019-01-29T13:28:50.144Z,9.87
2019-01-29T13:30:51.276Z,8.90
2019-01-29T13:32:52.373Z,8.27
2019-01-29T13:34:53.212Z,8.33
2019-01-29T13:36:54.057Z,9.40
2019-01-29T13:38:54.912Z,7.87
2019-01-29T13:40:55.745Z,7.20
2019-01-29T13:42:56.583Z,9.40
2019-01-29T13:44:57.419Z,8.40
2019-01-29T13:46:58.248Z,10.17
2019-01-29T13:48:59.105Z,7.50
2019-01-29T13:50:59.952Z,8.23
2019-01-29T13:53:01.520Z,7.70
2019-01-29T13:55:02.349Z,10.07
2019-01-29T13:57:03.196Z,9.33
2019-01-29T13:59:04.037Z,8.60
2019-01-29T14:01:04.972Z,9.30
2019-01-29T14:03:05.812Z,9.13
2019-01-29T14:05:06.649Z,8.73
2019-01-29T14:07:07.492Z,11.00
2019-01-29T14:09:08.451Z,8.97
2019-01-29T14:11:09.406Z,15.90
2019-01-29T14:13:10.511Z,17.73
2019-01-29T14:15:13.244Z,19.67
2019-01-29T14:17:14.344Z,13.10
2019-01-29T14:19:15.503Z,10.20
2019-01-29T14:21:16.348Z,10.47
2019-01-29T14:23:17.213Z,10.83
2019-01-29T14:25:18.047Z,8.10
2019-01-29T14:27:18.901Z,11.10
2019-01-29T14:29:19.730Z,8.63
2019-01-29T14:31:20.565Z,9.23
2019-01-29T14:33:21.421Z,8.03
2019-01-29T14:35:22.281Z,9.80
2019-01-29T14:37:23.104Z,10.13
2019-01-29T14:39:23.937Z,11.27
2019-01-29T14:41:25.192Z,9.37
2019-01-29T14:43:26.060Z,8.63
2019-01-29T14:45:26.989Z,8.83
2019-01-29T14:47:27.855Z,10.30
2019-01-29T14:49:28.697Z,10.93
2019-01-29T14:51:29.540Z,9.90
2019-01-29T14:53:30.426Z,8.97
2019-01-29T14:55:31.228Z,9.67
2019-01-29T14:57:32.358Z,7.47
2019-01-29T14:59:33.221Z,8.47
2019-01-29T15:01:34.060Z,10.27
2019-01-29T15:03:34.885Z,9.83
2019-01-29T15:05:35.747Z,11.37
2019-01-29T15:07:36.694Z,9.93
2019-01-29T15:09:37.646Z,11.00
2019-01-29T15:11:38.481Z,8.73
2019-01-29T15:13:39.408Z,9.90
2019-01-29T15:15:45.741Z,8.70
2019-01-29T15:17:50.238Z,12.97
2019-01-29T15:19:51.115Z,9.93
2019-01-29T15:21:51.951Z,12.87
2019-01-29T15:23:52.797Z,10.43
2019-01-29T15:25:53.633Z,10.27
2019-01-29T15:27:54.501Z,11.50
2019-01-29T15:29:55.328Z,10.27
2019-01-29T15:31:56.193Z,11.97
2019-01-29T15:33:57.011Z,15.30
2019-01-29T15:35:57.865Z,31.00
2019-01-29T15:37:58.703Z,19.87
2019-01-29T15:39:59.548Z,12.20
2019-01-29T15:42:00.388Z,11.27
2019-01-29T15:44:01.240Z,11.10
2019-01-29T15:46:02.078Z,13.83
2019-01-29T15:48:02.900Z,11.93
2019-01-29T15:50:03.748Z,11.67
2019-01-29T15:52:04.588Z,11.27
2019-01-29T15:54:05.705Z,10.73
2019-01-29T15:56:06.824Z,13.83
2019-01-29T15:58:07.666Z,12.73
2019-01-29T16:00:08.488Z,13.30
2019-01-29T16:02:09.344Z,12.77
2019-01-29T16:04:10.180Z,13.10
2019-01-29T16:06:11.037Z,11.13
2019-01-29T16:08:11.868Z,13.43
2019-01-29T16:10:12.721Z,11.77
2019-01-29T16:12:13.551Z,12.10
2019-01-29T16:14:14.403Z,12.37
2019-01-29T16:16:15.260Z,11.53
2019-01-29T16:18:16.152Z,12.10
2019-01-29T16:20:17.023Z,14.70
2019-01-29T16:22:17.864Z,12.20
2019-01-29T16:24:18.700Z,11.70
2019-01-29T16:26:19.576Z,16.87
2019-01-29T16:28:20.405Z,16.93
2019-01-29T16:30:21.237Z,15.20
2019-01-29T16:32:22.076Z,14.20
2019-01-29T16:34:22.922Z,20.37
2019-01-29T16:36:23.749Z,14.97
2019-01-29T16:38:24.681Z,15.97
2019-01-29T16:40:25.513Z,15.60
2019-01-29T16:42:26.345Z,15.32
2019-01-29T16:44:27.200Z,17.07
2019-01-29T16:46:28.060Z,16.97
2019-01-29T16:48:28.891Z,18.27
2019-01-29T16:50:29.717Z,20.93
2019-01-29T16:52:30.556Z,16.10
2019-01-29T16:54:31.407Z,16.03
2019-01-29T16:56:32.239Z,21.10
2019-01-29T16:58:33.080Z,21.13
2019-01-29T17:00:33.937Z,18.43
2019-01-29T17:02:34.760Z,17.87
2019-01-29T17:04:35.605Z,19.80
2019-01-29T17:06:36.451Z,20.80
2019-01-29T17:08:37.304Z,18.37
2019-01-29T17:10:38.152Z,19.23
2019-01-29T17:12:39.041Z,17.70
2019-01-29T17:14:39.984Z,20.63
2019-01-29T17:16:40.901Z,22.73
2019-01-29T17:18:41.740Z,18.33
2019-01-29T17:20:42.588Z,19.80
2019-01-29T17:22:43.416Z,20.57
2019-01-29T17:24:44.276Z,20.03
2019-01-29T17:26:45.437Z,19.93
2019-01-29T17:28:46.296Z,20.60
2019-01-29T17:30:47.120Z,20.33
2019-01-29T17:32:47.952Z,22.20
2019-01-29T17:34:48.800Z,23.10
2019-01-29T17:36:49.630Z,22.53
2019-01-29T17:38:50.457Z,24.17
2019-01-29T17:40:51.304Z,23.77
2019-01-29T17:42:52.145Z,23.33
2019-01-29T17:44:52.983Z,27.00
2019-01-29T17:46:53.937Z,24.43
2019-01-29T17:48:54.831Z,22.77
2019-01-29T17:50:55.672Z,22.57
2019-01-29T17:52:56.525Z,25.43
2019-01-29T17:54:57.352Z,26.93
2019-01-29T17:56:58.199Z,27.67
2019-01-29T17:58:59.380Z,26.27
2019-01-29T18:01:00.800Z,28.10
2019-01-29T18:03:01.636Z,23.97
2019-01-29T18:05:02.473Z,24.70
2019-01-29T18:07:03.668Z,24.60
2019-01-29T18:09:05.706Z,23.23
2019-01-29T18:11:06.540Z,22.43
2019-01-29T18:13:07.386Z,22.37
2019-01-29T18:15:08.224Z,25.70
2019-01-29T18:17:09.076Z,22.43
2019-01-29T18:19:10.017Z,22.53
2019-01-29T18:21:10.876Z,21.93
2019-01-29T18:23:11.708Z,24.43
2019-01-29T18:25:12.555Z,22.43
2019-01-29T18:27:13.388Z,23.60
2019-01-29T18:29:14.216Z,22.43
2019-01-29T18:31:15.416Z,21.93
2019-01-29T18:33:16.679Z,22.70
2019-01-29T18:35:17.520Z,21.37
2019-01-29T18:37:18.344Z,20.10
2019-01-29T18:39:19.200Z,19.90
2019-01-29T18:41:20.360Z,20.80
2019-01-29T18:43:21.251Z,22.50
2019-01-29T18:45:22.097Z,19.00
2019-01-29T18:47:22.972Z,24.97
2019-01-29T18:49:23.804Z,22.60
2019-01-29T18:51:24.745Z,27.90
2019-01-29T18:53:25.614Z,23.47
2019-01-29T18:55:26.463Z,22.97
2019-01-29T18:57:27.333Z,20.90
2019-01-29T18:59:28.196Z,24.73
2019-01-29T19:01:29.032Z,23.97
2019-01-29T19:03:29.876Z,23.43
2019-01-29T19:05:31.092Z,23.20
2019-01-29T19:07:31.936Z,24.70
2019-01-29T19:09:32.777Z,23.80
2019-01-29T19:11:33.892Z,26.10
2019-01-29T19:13:34.740Z,23.27
2019-01-29T19:15:35.596Z,22.47
2019-01-29T19:17:36.433Z,24.73
2019-01-29T19:19:37.276Z,25.03
2019-01-29T19:21:38.123Z,22.97
2019-01-29T19:23:39.026Z,21.17
2019-01-29T19:25:39.859Z,17.63
2019-01-29T19:27:40.727Z,21.47
2019-01-29T19:29:41.561Z,22.37
2019-01-29T19:31:42.436Z,23.57
2019-01-29T19:33:43.617Z,22.90
2019-01-29T19:35:44.454Z,20.53
2019-01-29T19:37:45.304Z,18.23
2019-01-29T19:39:46.644Z,20.80
2019-01-29T19:41:47.468Z,21.77
2019-01-29T19:43:48.331Z,19.03
2019-01-29T19:45:49.179Z,16.80
2019-01-29T19:47:50.013Z,20.40
2019-01-29T19:49:50.840Z,20.10
2019-01-29T19:51:51.684Z,17.17
2019-01-29T19:53:52.864Z,18.27
2019-01-29T19:55:53.791Z,14.60
2019-01-29T19:57:54.625Z,16.07
2019-01-29T19:59:55.467Z,15.10
2019-01-29T20:01:56.657Z,17.17
2019-01-29T20:03:57.509Z,15.23
2019-01-29T20:05:58.378Z,17.30
2019-01-29T20:07:59.220Z,15.57
2019-01-29T20:10:00.097Z,16.67
2019-01-29T20:12:01.117Z,14.70
2019-01-29T20:14:02.065Z,14.60
2019-01-29T20:16:02.911Z,17.77
2019-01-29T20:18:03.766Z,15.50
2019-01-29T20:20:04.732Z,15.77
2019-01-29T20:22:05.650Z,14.00
2019-01-29T20:24:06.586Z,13.77
2019-01-29T20:26:07.416Z,16.77
2019-01-29T20:28:08.514Z,17.00
2019-01-29T20:30:09.364Z,17.07
2019-01-29T20:32:10.209Z,20.30
2019-01-29T20:34:11.044Z,17.63
2019-01-29T20:36:11.897Z,19.93
2019-01-29T20:38:12.735Z,18.33
2019-01-29T20:40:13.941Z,17.23
2019-01-29T20:42:14.806Z,18.47
2019-01-29T20:44:16.754Z,18.83
2019-01-29T20:46:17.588Z,18.13
2019-01-29T20:48:18.421Z,17.93
2019-01-29T20:50:19.356Z,16.90
2019-01-29T20:52:20.180Z,16.23
2019-01-29T20:54:21.028Z,18.70
2019-01-29T20:56:21.941Z,17.40
2019-01-29T20:58:22.780Z,15.93
2019-01-29T21:00:23.628Z,16.87
2019-01-29T21:02:24.495Z,14.80
2019-01-29T21:04:25.367Z,16.53
2019-01-29T21:06:26.208Z,14.03
2019-01-29T21:08:27.059Z,13.90
2019-01-29T21:10:27.935Z,11.90
2019-01-29T21:12:28.925Z,11.97
2019-01-29T21:14:30.629Z,10.30
2019-01-29T21:16:31.508Z,11.50
2019-01-29T21:18:32.359Z,11.40
2019-01-29T21:20:33.241Z,10.70
2019-01-29T21:22:34.344Z,10.03
2019-01-29T21:24:35.224Z,10.40
2019-01-29T21:26:36.367Z,8.93
2019-01-29T21:28:37.232Z,11.97
2019-01-29T21:30:38.072Z,10.43
2019-01-29T21:32:38.930Z,10.10
2019-01-29T21:34:39.811Z,11.20
2019-01-29T21:36:40.687Z,10.30
2019-01-29T21:38:41.571Z,12.53
2019-01-29T21:40:42.449Z,10.40
2019-01-29T21:42:43.597Z,9.83
2019-01-29T21:44:44.454Z,14.40
2019-01-29T21:46:45.649Z,13.93
2019-01-29T21:48:46.805Z,11.63
2019-01-29T21:50:47.651Z,12.77
2019-01-29T21:52:48.512Z,10.20
2019-01-29T21:54:49.388Z,11.37
2019-01-29T21:56:50.238Z,10.03
2019-01-29T21:58:51.585Z,10.37
2019-01-29T22:00:52.454Z,9.60
2019-01-29T22:02:53.341Z,11.83
2019-01-29T22:04:54.177Z,11.40
2019-01-29T22:06:55.385Z,9.93
2019-01-29T22:08:56.229Z,9.33
2019-01-29T22:10:57.403Z,9.37
2019-01-29T22:12:58.272Z,8.73
2019-01-29T22:14:59.109Z,9.07
2019-01-29T22:16:59.941Z,10.07
2019-01-29T22:19:00.789Z,10.57
2019-01-29T22:21:01.921Z,11.73
2019-01-29T22:23:02.753Z,10.13
2019-01-29T22:25:03.605Z,9.73
2019-01-29T22:27:04.756Z,11.27
2019-01-29T22:29:05.592Z,9.87
2019-01-29T22:31:06.421Z,9.43
2019-01-29T22:33:07.544Z,10.20
2019-01-29T22:35:08.381Z,10.50
2019-01-29T22:37:09.459Z,11.53
2019-01-29T22:39:10.296Z,8.97
2019-01-29T22:41:11.149Z,18.63
2019-01-29T22:43:11.980Z,11.27
2019-01-29T22:45:13.147Z,12.20
2019-01-29T22:47:14.003Z,14.73
2019-01-29T22:49:14.830Z,9.00
2019-01-29T22:51:15.656Z,9.90
2019-01-29T22:53:16.799Z,7.57
2019-01-29T22:55:17.633Z,8.30
2019-01-29T22:57:18.476Z,8.53
2019-01-29T22:59:19.336Z,7.53
2019-01-29T23:01:20.188Z,8.77
2019-01-29T23:03:21.044Z,8.73
2019-01-29T23:05:21.876Z,7.43
2019-01-29T23:07:22.708Z,8.20
2019-01-29T23:09:23.557Z,9.33
2019-01-29T23:11:24.694Z,7.53
2019-01-29T23:13:25.536Z,7.87
2019-01-29T23:15:26.367Z,8.13
2019-01-29T23:17:27.518Z,8.43
2019-01-29T23:19:28.344Z,8.20
2019-01-29T23:21:29.206Z,9.97
2019-01-29T23:23:30.309Z,8.53
2019-01-29T23:25:31.136Z,8.20
2019-01-29T23:27:31.972Z,10.67
2019-01-29T23:29:42.997Z,10.40
2019-01-29T23:31:35.861Z,9.30
2019-01-29T23:33:37.168Z,8.77
2019-01-29T23:35:38.013Z,8.53
2019-01-29T23:37:38.877Z,10.00
2019-01-29T23:39:39.728Z,8.67
2019-01-29T23:41:40.872Z,9.93
2019-01-29T23:43:41.775Z,8.10
2019-01-29T23:45:42.648Z,8.60
2019-01-29T23:47:43.493Z,9.50
2019-01-29T23:49:44.638Z,9.57
2019-01-29T23:51:45.865Z,9.37
2019-01-29T23:53:46.715Z,10.90
2019-01-29T23:55:47.537Z,9.90
2019-01-29T23:57:48.384Z,9.03
2019-01-29T23:59:53.830Z,10.30
